createdAt,value
2022-10-14T00:00:20.921Z,11.57
2022-10-14T00:01:24.611Z,12.75
2022-10-14T00:02:26.889Z,11.70
2022-10-14T00:03:29.967Z,11.07
2022-10-14T00:04:32.247Z,11.07
2022-10-14T00:05:34.479Z,12.40
2022-10-14T00:06:36.633Z,15.35
2022-10-14T00:07:39.417Z,14.25
2022-10-14T00:08:43.072Z,15.93
2022-10-14T00:09:49.251Z,15.98
2022-10-14T00:10:51.703Z,14.68
2022-10-14T00:11:53.845Z,13.77
2022-10-14T00:12:56.082Z,14.98
2022-10-14T00:14:04.593Z,12.93
2022-10-14T00:15:07.655Z,13.70
2022-10-14T00:16:24.913Z,13.60
2022-10-14T00:17:27.118Z,13.48
2022-10-14T00:18:30.693Z,14.45
2022-10-14T00:19:32.861Z,13.93
2022-10-14T00:20:36.224Z,14.70
2022-10-14T00:21:41.079Z,12.98
2022-10-14T00:22:44.074Z,13.30
2022-10-14T00:23:46.537Z,12.82
2022-10-14T00:24:48.726Z,12.00
2022-10-14T00:25:51.084Z,12.13
2022-10-14T00:26:54.117Z,12.10
2022-10-14T00:27:56.566Z,12.48
2022-10-14T00:29:00.014Z,11.85
2022-10-14T00:30:06.616Z,12.55
2022-10-14T00:31:09.279Z,12.02
2022-10-14T00:32:11.891Z,11.82
2022-10-14T00:33:14.089Z,12.75
2022-10-14T00:34:16.321Z,12.05
2022-10-14T00:35:19.027Z,12.05
2022-10-14T00:36:23.026Z,11.52
2022-10-14T00:37:25.460Z,11.57
2022-10-14T00:38:28.413Z,11.57
2022-10-14T00:39:30.650Z,12.40
2022-10-14T00:40:33.332Z,11.57
2022-10-14T00:41:35.753Z,11.27
2022-10-14T00:42:37.971Z,11.70
2022-10-14T00:44:24.903Z,11.48
2022-10-14T00:45:27.101Z,12.95
2022-10-14T00:46:34.477Z,11.68
2022-10-14T00:47:37.392Z,12.30
2022-10-14T00:48:43.729Z,11.40
2022-10-14T00:49:45.895Z,11.80
2022-10-14T00:50:54.626Z,11.43
2022-10-14T00:52:08.932Z,12.68
2022-10-14T00:53:13.942Z,13.75
2022-10-14T00:54:18.576Z,13.88
2022-10-14T00:55:21.312Z,15.27
2022-10-14T00:56:28.238Z,15.65
2022-10-14T00:57:31.431Z,12.30
2022-10-14T00:58:34.583Z,14.65
2022-10-14T00:59:38.228Z,14.85
2022-10-14T01:00:40.469Z,15.45
2022-10-14T01:01:42.707Z,13.35
2022-10-14T01:02:46.616Z,14.05
2022-10-14T01:03:49.070Z,14.23
2022-10-14T01:04:51.361Z,13.43
2022-10-14T01:06:00.106Z,13.75
2022-10-14T01:07:22.445Z,16.98
2022-10-14T01:08:44.556Z,14.77
2022-10-14T01:09:59.975Z,14.30
2022-10-14T01:11:14.712Z,12.13
2022-10-14T01:12:50.074Z,12.88
2022-10-14T01:14:21.067Z,13.02
2022-10-14T01:15:32.317Z,14.43
2022-10-14T01:17:06.154Z,12.52
2022-10-14T01:18:19.971Z,13.88
2022-10-14T01:19:59.644Z,15.63
2022-10-14T01:21:15.708Z,15.30
2022-10-14T01:22:27.266Z,15.07
2022-10-14T01:24:11.388Z,15.13
2022-10-14T01:25:34.760Z,15.20
2022-10-14T01:27:18.665Z,14.75
2022-10-14T01:29:48.991Z,13.73
2022-10-14T01:31:03.272Z,12.38
2022-10-14T01:32:20.124Z,14.07
2022-10-14T01:33:25.774Z,13.38
2022-10-14T01:34:36.687Z,12.13
2022-10-14T01:35:50.675Z,13.77
2022-10-14T01:37:04.954Z,12.77
2022-10-14T01:38:13.033Z,12.15
2022-10-14T01:39:21.540Z,14.50
2022-10-14T01:40:47.360Z,13.85
2022-10-14T01:41:58.523Z,12.32
2022-10-14T01:43:03.076Z,12.32
2022-10-14T01:44:10.155Z,11.02
2022-10-14T01:45:20.063Z,10.10
2022-10-14T01:46:24.483Z,12.45
2022-10-14T01:47:30.312Z,10.23
2022-10-14T01:48:36.857Z,10.10
2022-10-14T01:49:44.259Z,10.30
2022-10-14T01:50:50.017Z,9.73
2022-10-14T01:51:58.624Z,9.93
2022-10-14T01:53:11.810Z,11.38
2022-10-14T01:54:22.171Z,10.50
2022-10-14T01:55:28.412Z,10.35
2022-10-14T01:56:34.980Z,9.95
2022-10-14T01:57:43.492Z,9.45
2022-10-14T01:58:46.554Z,9.32
2022-10-14T01:59:50.282Z,8.07
2022-10-14T02:00:53.035Z,8.95
2022-10-14T02:01:55.297Z,8.88
2022-10-14T02:02:57.563Z,8.50
2022-10-14T02:03:59.689Z,9.63
2022-10-14T02:05:10.716Z,9.82
2022-10-14T02:06:24.986Z,8.35
2022-10-14T02:07:47.397Z,8.80
2022-10-14T02:09:09.951Z,8.68
2022-10-14T02:10:41.735Z,8.40
2022-10-14T02:12:18.487Z,8.95
2022-10-14T02:13:42.986Z,9.23
2022-10-14T02:15:00.735Z,8.88
2022-10-14T02:16:26.203Z,7.65
2022-10-14T02:17:34.153Z,8.63
2022-10-14T02:18:57.002Z,8.35
2022-10-14T02:20:43.795Z,8.05
2022-10-14T02:22:15.691Z,8.02
2022-10-14T02:23:35.175Z,7.90
2022-10-14T02:24:44.460Z,7.00
2022-10-14T02:25:48.998Z,7.65
2022-10-14T02:26:55.521Z,7.72
2022-10-14T02:28:00.539Z,8.73
2022-10-14T02:29:05.013Z,8.90
2022-10-14T02:30:09.487Z,7.65
2022-10-14T02:31:16.186Z,8.02
2022-10-14T02:32:22.805Z,6.85
2022-10-14T02:33:37.845Z,7.30
2022-10-14T02:34:48.149Z,14.45
2022-10-14T02:35:51.919Z,17.05
2022-10-14T02:36:55.421Z,15.20
2022-10-14T02:37:59.588Z,12.32
2022-10-14T02:39:03.108Z,7.43
2022-10-14T02:40:11.335Z,7.35
2022-10-14T02:41:18.875Z,6.10
2022-10-14T02:42:21.269Z,7.00
2022-10-14T02:43:23.683Z,5.60
2022-10-14T02:44:25.867Z,6.13
2022-10-14T02:45:28.160Z,5.75
2022-10-14T02:46:30.491Z,5.82
2022-10-14T02:47:32.676Z,6.00
2022-10-14T02:48:34.950Z,6.90
2022-10-14T02:49:37.792Z,6.20
2022-10-14T02:50:42.411Z,6.63
2022-10-14T02:51:44.662Z,6.22
2022-10-14T02:52:47.554Z,6.47
2022-10-14T02:53:49.912Z,7.15
2022-10-14T02:54:52.087Z,6.97
2022-10-14T02:55:54.248Z,7.20
2022-10-14T02:56:56.440Z,7.22
2022-10-14T02:57:59.757Z,6.97
2022-10-14T02:59:02.107Z,7.70
2022-10-14T03:00:06.603Z,6.78
2022-10-14T03:01:11.024Z,6.70
2022-10-14T03:02:14.364Z,6.35
2022-10-14T03:03:17.199Z,6.30
2022-10-14T03:04:19.440Z,6.90
2022-10-14T03:05:21.610Z,6.18
2022-10-14T03:06:23.841Z,6.90
2022-10-14T03:07:26.351Z,6.20
2022-10-14T03:08:30.756Z,7.13
2022-10-14T03:09:34.462Z,6.45
2022-10-14T03:10:36.696Z,5.88
2022-10-14T03:11:39.000Z,6.30
2022-10-14T03:12:44.616Z,6.55
2022-10-14T03:13:55.636Z,6.22
2022-10-14T03:14:57.878Z,6.32
2022-10-14T03:16:01.541Z,6.70
2022-10-14T03:17:03.805Z,5.35
2022-10-14T03:18:08.721Z,5.68
2022-10-14T03:19:18.291Z,6.05
2022-10-14T03:20:24.125Z,5.70
2022-10-14T03:21:30.838Z,6.10
2022-10-14T03:22:33.631Z,6.07
2022-10-14T03:23:35.793Z,6.43
2022-10-14T03:24:38.411Z,5.60
2022-10-14T03:26:13.084Z,5.70
2022-10-14T03:27:18.882Z,5.43
2022-10-14T03:28:24.734Z,6.07
2022-10-14T03:29:34.950Z,6.05
2022-10-14T03:30:50.768Z,6.28
2022-10-14T03:32:06.537Z,5.32
2022-10-14T03:33:33.078Z,6.38
2022-10-14T03:34:56.308Z,6.25
2022-10-14T03:36:00.078Z,5.95
2022-10-14T03:37:15.414Z,5.88
2022-10-14T03:38:24.312Z,5.40
2022-10-14T03:39:28.508Z,5.38
2022-10-14T03:40:37.652Z,5.53
2022-10-14T03:41:43.829Z,5.65
2022-10-14T03:42:47.856Z,5.20
2022-10-14T03:43:51.288Z,5.47
2022-10-14T03:44:53.723Z,5.68
2022-10-14T03:46:00.934Z,6.22
2022-10-14T03:47:04.191Z,5.93
2022-10-14T03:48:08.611Z,5.90
2022-10-14T03:49:14.900Z,5.88
2022-10-14T03:50:17.413Z,5.88
2022-10-14T03:51:24.028Z,6.03
2022-10-14T03:52:29.178Z,5.68
2022-10-14T03:53:40.712Z,5.40
2022-10-14T03:54:43.233Z,5.30
2022-10-14T03:55:47.640Z,5.15
2022-10-14T03:56:50.811Z,5.40
2022-10-14T03:57:54.728Z,5.45
2022-10-14T03:58:57.018Z,6.47
2022-10-14T04:00:00.420Z,6.47
2022-10-14T04:01:15.960Z,5.72
2022-10-14T04:02:50.584Z,6.43
2022-10-14T04:04:13.094Z,5.45
2022-10-14T04:05:15.654Z,6.38
2022-10-14T04:06:20.362Z,5.97
2022-10-14T04:07:24.762Z,5.82
2022-10-14T04:08:31.864Z,6.03
2022-10-14T04:09:41.550Z,9.93
2022-10-14T04:10:45.822Z,14.55
2022-10-14T04:11:50.477Z,14.10
2022-10-14T04:13:22.558Z,16.63
2022-10-14T04:14:26.422Z,23.23
2022-10-14T04:15:28.658Z,24.25
2022-10-14T04:16:56.841Z,18.45
2022-10-14T04:17:59.029Z,13.25
2022-10-14T04:19:01.209Z,13.02
2022-10-14T04:20:03.750Z,17.67
2022-10-14T04:21:10.526Z,16.50
2022-10-14T04:22:12.734Z,17.25
2022-10-14T04:23:14.911Z,14.13
2022-10-14T04:24:20.596Z,12.50
2022-10-14T04:25:28.142Z,10.80
2022-10-14T04:26:37.523Z,11.80
2022-10-14T04:27:46.039Z,12.32
2022-10-14T04:28:48.411Z,11.30
2022-10-14T04:30:06.743Z,11.45
2022-10-14T04:31:19.715Z,10.80
2022-10-14T04:32:35.165Z,7.85
2022-10-14T04:33:39.203Z,7.57
2022-10-14T04:34:50.218Z,8.35
2022-10-14T04:36:00.110Z,7.53
2022-10-14T04:37:08.097Z,6.60
2022-10-14T04:38:33.815Z,6.93
2022-10-14T04:39:40.380Z,5.85
2022-10-14T04:40:45.386Z,6.03
2022-10-14T04:41:48.272Z,6.22
2022-10-14T04:42:58.138Z,6.10
2022-10-14T04:44:07.031Z,5.40
2022-10-14T04:45:16.191Z,5.47
2022-10-14T04:46:24.745Z,5.68
2022-10-14T04:47:27.210Z,4.88
2022-10-14T04:48:34.255Z,6.03
2022-10-14T04:49:37.124Z,6.03
2022-10-14T04:50:46.168Z,6.50
2022-10-14T04:52:02.243Z,5.82
2022-10-14T04:53:26.975Z,6.43
2022-10-14T04:54:39.028Z,6.30
2022-10-14T04:55:41.305Z,6.00
2022-10-14T04:56:43.466Z,6.45
2022-10-14T04:57:47.148Z,6.60
2022-10-14T04:58:50.062Z,6.13
2022-10-14T04:59:52.404Z,6.65
2022-10-14T05:00:57.790Z,6.25
2022-10-14T05:02:07.837Z,6.40
2022-10-14T05:03:17.565Z,6.55
2022-10-14T05:04:19.960Z,6.28
2022-10-14T05:05:24.092Z,5.97
2022-10-14T05:06:29.653Z,6.97
2022-10-14T05:07:31.915Z,6.15
2022-10-14T05:08:44.502Z,6.40
2022-10-14T05:09:52.087Z,6.45
2022-10-14T05:11:02.449Z,6.03
2022-10-14T05:12:16.738Z,6.80
2022-10-14T05:13:24.997Z,5.80
2022-10-14T05:14:36.318Z,6.45
2022-10-14T05:15:50.051Z,6.07
2022-10-14T05:16:52.821Z,6.45
2022-10-14T05:18:02.104Z,6.20
2022-10-14T05:19:20.557Z,6.82
2022-10-14T05:20:26.736Z,5.85
2022-10-14T05:21:32.269Z,6.05
2022-10-14T05:22:47.821Z,6.35
2022-10-14T05:23:50.401Z,5.93
2022-10-14T05:24:53.242Z,6.68
2022-10-14T05:25:57.541Z,5.70
2022-10-14T05:27:00.538Z,6.20
2022-10-14T05:28:05.118Z,6.00
2022-10-14T05:29:10.491Z,5.80
2022-10-14T05:30:14.747Z,6.15
2022-10-14T05:31:22.547Z,6.10
2022-10-14T05:32:33.816Z,6.33
2022-10-14T05:33:39.615Z,6.32
2022-10-14T05:34:42.243Z,6.38
2022-10-14T05:36:04.128Z,6.43
2022-10-14T05:37:09.403Z,5.80
2022-10-14T05:38:22.559Z,6.00
2022-10-14T05:39:25.093Z,6.78
2022-10-14T05:40:27.543Z,7.43
2022-10-14T05:41:30.468Z,6.40
2022-10-14T05:42:34.469Z,6.13
2022-10-14T05:43:37.398Z,6.38
2022-10-14T05:44:41.674Z,6.22
2022-10-14T05:45:44.072Z,6.00
2022-10-14T05:46:46.366Z,6.13
2022-10-14T05:47:49.993Z,6.38
2022-10-14T05:48:54.013Z,6.30
2022-10-14T05:49:56.225Z,7.95
2022-10-14T05:51:02.149Z,8.63
2022-10-14T05:52:05.356Z,7.93
2022-10-14T05:53:08.766Z,9.20
2022-10-14T05:54:16.709Z,8.85
2022-10-14T05:55:19.720Z,7.53
2022-10-14T05:56:23.174Z,7.78
2022-10-14T05:57:27.120Z,6.97
2022-10-14T05:58:29.446Z,7.65
2022-10-14T05:59:34.592Z,7.13
2022-10-14T06:00:36.845Z,7.45
2022-10-14T06:01:43.693Z,6.70
2022-10-14T06:02:46.416Z,6.50
2022-10-14T06:03:52.604Z,6.50
2022-10-14T06:04:55.382Z,8.18
2022-10-14T06:05:59.060Z,7.03
2022-10-14T06:07:01.467Z,7.70
2022-10-14T06:08:05.008Z,7.55
2022-10-14T06:09:11.480Z,6.25
2022-10-14T06:10:14.140Z,6.68
2022-10-14T06:11:16.371Z,6.72
2022-10-14T06:12:19.627Z,7.40
2022-10-14T06:13:22.848Z,6.75
2022-10-14T06:14:26.213Z,6.72
2022-10-14T06:15:28.446Z,6.70
2022-10-14T06:16:31.410Z,6.53
2022-10-14T06:17:33.824Z,6.05
2022-10-14T06:18:36.698Z,6.40
2022-10-14T06:19:39.589Z,6.28
2022-10-14T06:20:41.755Z,7.50
2022-10-14T06:21:44.783Z,7.18
2022-10-14T06:22:47.070Z,13.25
2022-10-14T06:23:49.255Z,9.15
2022-10-14T06:24:51.538Z,9.05
2022-10-14T06:25:53.770Z,7.43
2022-10-14T06:26:55.903Z,8.52
2022-10-14T06:28:05.235Z,12.38
2022-10-14T06:29:07.612Z,9.02
2022-10-14T06:30:10.564Z,10.35
2022-10-14T06:31:12.786Z,10.57
2022-10-14T06:32:15.011Z,10.77
2022-10-14T06:33:17.385Z,10.10
2022-10-14T06:34:22.994Z,7.28
2022-10-14T06:35:25.303Z,7.43
2022-10-14T06:36:27.534Z,7.00
2022-10-14T06:37:29.800Z,7.70
2022-10-14T06:38:32.277Z,6.03
2022-10-14T06:39:34.486Z,7.28
2022-10-14T06:40:37.270Z,7.15
2022-10-14T06:41:39.442Z,6.53
2022-10-14T06:42:48.198Z,7.05
2022-10-14T06:43:50.508Z,6.50
2022-10-14T06:44:52.668Z,6.30
2022-10-14T06:45:57.213Z,6.43
2022-10-14T06:47:00.046Z,6.85
2022-10-14T06:48:04.342Z,6.57
2022-10-14T06:49:06.638Z,6.38
2022-10-14T06:50:09.047Z,6.53
2022-10-14T06:51:11.503Z,6.22
2022-10-14T06:52:13.761Z,6.20
2022-10-14T06:53:16.007Z,5.82
2022-10-14T06:54:18.396Z,6.53
2022-10-14T06:55:20.639Z,6.47
2022-10-14T06:56:22.835Z,6.78
2022-10-14T06:57:25.090Z,6.10
2022-10-14T06:58:27.465Z,6.50
2022-10-14T06:59:29.726Z,6.75
2022-10-14T07:00:31.980Z,7.47
2022-10-14T07:01:34.278Z,7.30
2022-10-14T07:02:39.797Z,8.95
2022-10-14T07:03:42.043Z,7.57
2022-10-14T07:04:44.296Z,10.85
2022-10-14T07:05:46.584Z,7.53
2022-10-14T07:06:49.138Z,6.95
2022-10-14T07:07:51.932Z,8.25
2022-10-14T07:08:54.395Z,7.30
2022-10-14T07:09:58.075Z,7.03
2022-10-14T07:11:00.386Z,6.68
2022-10-14T07:12:02.645Z,6.53
2022-10-14T07:13:05.226Z,6.22
2022-10-14T07:14:07.535Z,6.72
2022-10-14T07:15:10.444Z,6.05
2022-10-14T07:16:12.788Z,6.22
2022-10-14T07:17:15.047Z,6.38
2022-10-14T07:18:17.475Z,6.13
2022-10-14T07:19:19.793Z,6.25
2022-10-14T07:20:22.324Z,5.95
2022-10-14T07:21:27.578Z,5.97
2022-10-14T07:22:29.955Z,6.00
2022-10-14T07:23:32.175Z,5.55
2022-10-14T07:24:34.458Z,6.38
2022-10-14T07:25:36.753Z,6.57
2022-10-14T07:26:38.985Z,5.95
2022-10-14T07:27:41.295Z,5.90
2022-10-14T07:28:43.589Z,6.93
2022-10-14T07:29:46.324Z,6.35
2022-10-14T07:31:14.573Z,6.22
2022-10-14T07:32:16.753Z,5.75
2022-10-14T07:33:18.983Z,5.95
2022-10-14T07:34:21.353Z,5.70
2022-10-14T07:35:25.579Z,5.82
2022-10-14T07:36:28.450Z,5.75
2022-10-14T07:37:30.816Z,5.47
2022-10-14T07:38:33.702Z,5.88
2022-10-14T07:39:36.147Z,5.35
2022-10-14T07:40:38.535Z,5.90
2022-10-14T07:41:41.065Z,6.22
2022-10-14T07:42:43.688Z,6.53
2022-10-14T07:43:49.048Z,6.05
2022-10-14T07:44:54.031Z,5.57
2022-10-14T07:46:00.860Z,5.38
2022-10-14T07:47:03.296Z,5.75
2022-10-14T07:48:05.902Z,6.18
2022-10-14T07:49:15.826Z,5.80
2022-10-14T07:50:18.698Z,6.30
2022-10-14T07:51:21.060Z,6.28
2022-10-14T07:52:23.227Z,6.30
2022-10-14T07:53:26.415Z,6.22
2022-10-14T07:54:30.975Z,6.57
2022-10-14T07:55:33.179Z,5.97
2022-10-14T07:56:39.302Z,6.07
2022-10-14T07:57:41.458Z,6.00
2022-10-14T07:58:44.457Z,5.72
2022-10-14T07:59:46.939Z,5.30
2022-10-14T08:00:51.426Z,5.80
2022-10-14T08:01:54.125Z,5.45
2022-10-14T08:02:56.394Z,5.95
2022-10-14T08:03:59.121Z,6.13
2022-10-14T08:05:25.623Z,6.55
2022-10-14T08:06:23.793Z,6.20
2022-10-14T08:07:26.955Z,5.47
2022-10-14T08:08:29.691Z,5.88
2022-10-14T08:09:35.325Z,5.35
2022-10-14T08:10:39.371Z,5.20
2022-10-14T08:11:43.016Z,5.20
2022-10-14T08:12:46.219Z,5.22
2022-10-14T08:13:50.142Z,5.30
2022-10-14T08:14:55.502Z,5.10
2022-10-14T08:15:57.895Z,4.60
2022-10-14T08:17:00.269Z,5.10
2022-10-14T08:18:02.746Z,4.50
2022-10-14T08:19:14.234Z,4.50
2022-10-14T08:20:17.195Z,5.18
2022-10-14T08:21:21.051Z,4.38
2022-10-14T08:22:23.679Z,4.97
2022-10-14T08:23:26.851Z,5.00
2022-10-14T08:24:29.203Z,5.28
2022-10-14T08:25:31.691Z,4.43
2022-10-14T08:26:48.853Z,5.13
2022-10-14T08:27:51.176Z,5.07
2022-10-14T08:28:53.568Z,4.53
2022-10-14T08:29:55.933Z,5.80
2022-10-14T08:31:01.097Z,5.28
2022-10-14T08:32:03.413Z,5.03
2022-10-14T08:33:05.770Z,4.82
2022-10-14T08:34:07.962Z,5.22
2022-10-14T08:35:10.308Z,4.45
2022-10-14T08:36:12.719Z,4.80
2022-10-14T08:37:15.616Z,4.30
2022-10-14T08:38:19.076Z,5.13
2022-10-14T08:39:21.821Z,4.70
2022-10-14T08:40:25.418Z,4.20
2022-10-14T08:41:59.917Z,5.25
2022-10-14T08:43:13.696Z,4.50
2022-10-14T08:44:33.865Z,4.53
2022-10-14T08:45:45.509Z,4.78
2022-10-14T08:47:02.154Z,4.85
2022-10-14T08:48:19.240Z,5.03
2022-10-14T08:49:52.720Z,4.70
2022-10-14T08:52:08.729Z,4.70
2022-10-14T08:53:19.419Z,4.60
2022-10-14T08:54:30.632Z,4.72
2022-10-14T08:55:37.348Z,4.15
2022-10-14T08:56:39.778Z,4.60
2022-10-14T08:57:50.383Z,5.65
2022-10-14T08:58:55.770Z,4.70
2022-10-14T08:59:58.070Z,4.40
2022-10-14T09:01:19.733Z,4.47
2022-10-14T09:02:47.993Z,4.30
2022-10-14T09:03:57.439Z,4.20
2022-10-14T09:05:02.239Z,4.47
2022-10-14T09:06:22.366Z,4.18
2022-10-14T09:07:25.367Z,4.78
2022-10-14T09:08:38.368Z,4.45
2022-10-14T09:09:44.720Z,4.45
2022-10-14T09:10:47.204Z,5.40
2022-10-14T09:11:59.081Z,4.22
2022-10-14T09:13:16.018Z,4.40
2022-10-14T09:14:23.870Z,4.55
2022-10-14T09:15:40.790Z,4.40
2022-10-14T09:16:46.702Z,4.40
2022-10-14T09:19:15.182Z,4.25
2022-10-14T09:20:21.116Z,4.10
2022-10-14T09:21:54.525Z,4.50
2022-10-14T09:24:29.090Z,5.32
2022-10-14T09:25:35.036Z,4.60
2022-10-14T09:26:43.960Z,4.65
2022-10-14T09:28:54.265Z,4.60
2022-10-14T09:30:01.566Z,4.60
2022-10-14T09:31:05.661Z,3.80
2022-10-14T09:32:12.976Z,4.40
2022-10-14T09:33:20.662Z,4.47
2022-10-14T09:34:31.281Z,4.32
2022-10-14T09:35:37.607Z,3.95
2022-10-14T09:36:41.045Z,4.00
2022-10-14T09:37:43.351Z,4.60
2022-10-14T09:38:53.298Z,4.55
2022-10-14T09:40:13.084Z,4.30
2022-10-14T09:41:16.827Z,4.57
2022-10-14T09:42:40.700Z,4.53
2022-10-14T09:44:18.689Z,4.65
2022-10-14T09:45:23.059Z,3.80
2022-10-14T09:46:25.296Z,4.90
2022-10-14T09:47:29.193Z,4.07
2022-10-14T09:48:39.207Z,4.45
2022-10-14T09:49:45.876Z,4.32
2022-10-14T09:50:55.598Z,4.22
2022-10-14T09:51:58.004Z,3.75
2022-10-14T09:53:10.802Z,4.32
2022-10-14T09:54:23.905Z,4.60
2022-10-14T09:55:26.168Z,4.13
2022-10-14T09:56:42.419Z,3.92
2022-10-14T09:57:44.744Z,4.45
2022-10-14T09:58:53.785Z,4.38
2022-10-14T10:00:00.631Z,3.88
2022-10-14T10:01:04.068Z,3.50
2022-10-14T10:02:21.925Z,4.35
2022-10-14T10:03:27.175Z,4.40
2022-10-14T10:04:32.073Z,4.00
2022-10-14T10:05:35.919Z,7.22
2022-10-14T10:06:53.115Z,6.63
2022-10-14T10:08:14.794Z,4.00
2022-10-14T10:09:20.575Z,3.70
2022-10-14T10:10:22.805Z,3.22
2022-10-14T10:11:39.212Z,3.70
2022-10-14T10:12:46.269Z,3.63
2022-10-14T10:13:48.644Z,3.97
2022-10-14T10:15:05.959Z,3.58
2022-10-14T10:16:19.655Z,3.63
2022-10-14T10:17:32.612Z,3.47
2022-10-14T10:18:34.848Z,3.22
2022-10-14T10:19:52.828Z,3.63
2022-10-14T10:21:07.436Z,3.85
2022-10-14T10:22:22.715Z,3.35
2022-10-14T10:23:25.480Z,3.55
2022-10-14T10:24:30.836Z,3.70
2022-10-14T10:25:33.362Z,4.15
2022-10-14T10:26:35.653Z,4.00
2022-10-14T10:27:43.123Z,3.80
2022-10-14T10:28:47.141Z,3.60
2022-10-14T10:29:49.450Z,3.38
2022-10-14T10:31:15.116Z,3.60
2022-10-14T10:32:38.816Z,3.42
2022-10-14T10:34:06.872Z,3.10
2022-10-14T10:35:22.187Z,3.40
2022-10-14T10:36:36.681Z,3.35
2022-10-14T10:38:01.705Z,3.25
2022-10-14T10:39:12.185Z,3.40
2022-10-14T10:40:30.190Z,3.50
2022-10-14T10:41:53.716Z,3.67
2022-10-14T10:43:01.894Z,3.53
2022-10-14T10:44:22.562Z,3.80
2022-10-14T10:45:40.707Z,3.97
2022-10-14T10:47:16.477Z,3.30
2022-10-14T10:48:47.431Z,3.67
2022-10-14T10:50:04.958Z,3.60
2022-10-14T10:51:14.617Z,3.30
2022-10-14T10:52:43.269Z,3.58
2022-10-14T10:53:50.820Z,3.15
2022-10-14T10:54:58.259Z,3.60
2022-10-14T10:56:38.818Z,3.90
2022-10-14T10:57:56.105Z,3.58
2022-10-14T10:59:06.548Z,3.50
2022-10-14T11:00:13.830Z,3.53
2022-10-14T11:01:41.060Z,3.40
2022-10-14T11:03:14.333Z,3.25
2022-10-14T11:04:34.113Z,3.42
2022-10-14T11:05:39.477Z,2.92
2022-10-14T11:07:27.008Z,3.10
2022-10-14T11:09:11.448Z,3.45
2022-10-14T11:10:51.173Z,3.33
2022-10-14T11:12:03.526Z,3.45
2022-10-14T11:14:27.857Z,3.40
2022-10-14T11:15:58.328Z,3.50
2022-10-14T11:17:14.601Z,3.83
2022-10-14T11:18:26.913Z,3.70
2022-10-14T11:19:39.402Z,3.83
2022-10-14T11:21:13.840Z,3.97
2022-10-14T11:22:22.190Z,2.95
2022-10-14T11:23:48.979Z,3.65
2022-10-14T11:25:17.836Z,4.25
2022-10-14T11:26:47.628Z,3.90
2022-10-14T11:28:22.013Z,4.72
2022-10-14T11:29:45.988Z,4.55
2022-10-14T11:32:24.263Z,4.57
2022-10-14T11:34:05.133Z,4.57
2022-10-14T11:35:19.122Z,3.70
2022-10-14T11:36:37.603Z,4.10
2022-10-14T11:37:39.764Z,4.00
2022-10-14T11:38:48.266Z,4.88
2022-10-14T11:39:57.616Z,4.55
2022-10-14T11:41:28.698Z,4.00
2022-10-14T11:42:44.536Z,4.10
2022-10-14T11:44:32.842Z,4.55
2022-10-14T11:45:52.246Z,4.25
2022-10-14T11:46:59.518Z,4.80
2022-10-14T11:48:10.825Z,4.45
2022-10-14T11:49:20.765Z,3.92
2022-10-14T11:50:39.351Z,3.17
2022-10-14T11:51:51.369Z,3.70
2022-10-14T11:53:04.251Z,3.55
2022-10-14T11:54:28.477Z,3.65
2022-10-14T11:55:40.230Z,3.40
2022-10-14T11:57:13.232Z,3.65
2022-10-14T11:58:25.833Z,4.40
2022-10-14T11:59:28.259Z,4.88
2022-10-14T12:01:09.420Z,5.72
2022-10-14T12:02:27.395Z,4.90
2022-10-14T12:03:59.799Z,4.47
2022-10-14T12:05:09.056Z,4.35
2022-10-14T12:06:48.766Z,3.80
2022-10-14T12:08:04.484Z,4.57
2022-10-14T12:09:44.369Z,4.10
2022-10-14T12:11:02.544Z,4.30
2022-10-14T12:12:11.725Z,3.95
2022-10-14T12:13:16.707Z,4.05
2022-10-14T12:14:30.025Z,3.75
2022-10-14T12:15:32.294Z,4.03
2022-10-14T12:16:34.639Z,3.90
2022-10-14T12:17:48.945Z,4.25
2022-10-14T12:18:55.714Z,4.20
2022-10-14T12:20:16.075Z,4.03
2022-10-14T12:21:27.956Z,3.65
2022-10-14T12:22:32.867Z,3.53
2022-10-14T12:23:42.279Z,3.70
2022-10-14T12:24:53.529Z,3.60
2022-10-14T12:26:04.346Z,3.17
2022-10-14T12:27:14.791Z,3.15
2022-10-14T12:28:20.854Z,3.92
2022-10-14T12:29:33.631Z,4.05
2022-10-14T12:30:41.454Z,4.30
2022-10-14T12:31:50.441Z,3.75
2022-10-14T12:33:02.551Z,3.75
2022-10-14T12:34:10.840Z,3.80
2022-10-14T12:35:50.824Z,4.93
2022-10-14T12:36:54.436Z,4.10
2022-10-14T12:38:03.825Z,3.78
2022-10-14T12:39:17.838Z,3.67
2022-10-14T12:40:28.506Z,3.58
2022-10-14T12:41:40.070Z,3.53
2022-10-14T12:42:42.136Z,3.37
2022-10-14T12:44:02.409Z,3.35
2022-10-14T12:45:16.578Z,3.80
2022-10-14T12:46:18.861Z,3.67
2022-10-14T12:47:31.959Z,3.38
2022-10-14T12:48:35.725Z,3.30
2022-10-14T12:49:37.882Z,3.25
2022-10-14T12:50:42.626Z,3.72
2022-10-14T12:52:06.603Z,3.38
2022-10-14T12:53:21.434Z,3.08
2022-10-14T12:54:25.243Z,3.03
2022-10-14T12:55:30.167Z,4.65
2022-10-14T12:56:40.245Z,4.53
2022-10-14T12:57:43.985Z,3.60
2022-10-14T12:59:07.948Z,3.80
2022-10-14T13:00:30.607Z,3.40
2022-10-14T13:01:36.387Z,3.45
2022-10-14T13:02:45.590Z,3.60
2022-10-14T13:05:08.673Z,3.25
2022-10-14T13:06:41.029Z,3.45
2022-10-14T13:07:48.741Z,4.05
2022-10-14T13:09:18.350Z,3.65
2022-10-14T13:10:26.605Z,3.03
2022-10-14T13:11:28.831Z,3.10
2022-10-14T13:12:31.735Z,3.03
2022-10-14T13:13:47.663Z,3.33
2022-10-14T13:15:19.527Z,4.55
2022-10-14T13:16:21.611Z,3.10
2022-10-14T13:17:44.666Z,3.85
2022-10-14T13:18:46.774Z,3.20
2022-10-14T13:19:49.043Z,3.03
2022-10-14T13:20:52.450Z,3.00
2022-10-14T13:21:54.810Z,3.30
2022-10-14T13:23:21.413Z,3.17
2022-10-14T13:24:39.194Z,2.80
2022-10-14T13:25:43.424Z,3.08
2022-10-14T13:26:54.435Z,3.13
2022-10-14T13:28:02.386Z,2.92
2022-10-14T13:29:15.134Z,2.97
2022-10-14T13:30:23.516Z,3.03
2022-10-14T13:31:50.601Z,3.00
2022-10-14T13:33:07.640Z,3.03
2022-10-14T13:34:31.438Z,3.08
2022-10-14T13:35:46.627Z,2.95
2022-10-14T13:37:06.004Z,3.22
2022-10-14T13:38:15.093Z,4.25
2022-10-14T13:39:18.393Z,3.55
2022-10-14T13:40:29.031Z,3.40
2022-10-14T13:41:34.501Z,3.88
2022-10-14T13:42:39.699Z,3.90
2022-10-14T13:43:43.611Z,3.95
2022-10-14T13:45:52.438Z,3.42
2022-10-14T13:46:54.978Z,3.17
2022-10-14T13:47:57.207Z,3.20
2022-10-14T13:49:02.288Z,3.10
2022-10-14T13:50:06.083Z,2.83
2022-10-14T13:51:24.396Z,2.97
2022-10-14T13:52:34.822Z,3.03
2022-10-14T13:53:37.033Z,3.20
2022-10-14T13:54:39.574Z,3.60
2022-10-14T13:55:49.139Z,3.70
2022-10-14T13:57:13.784Z,2.80
2022-10-14T13:58:22.736Z,2.67
2022-10-14T13:59:44.235Z,3.08
2022-10-14T14:00:57.911Z,2.90
2022-10-14T14:02:03.599Z,2.80
2022-10-14T14:03:25.273Z,2.92
2022-10-14T14:04:31.550Z,3.00
2022-10-14T14:05:36.344Z,2.80
2022-10-14T14:07:03.148Z,2.80
2022-10-14T14:08:37.223Z,3.20
2022-10-14T14:09:41.361Z,4.38
2022-10-14T14:11:17.829Z,3.72
2022-10-14T14:12:21.810Z,3.50
2022-10-14T14:13:26.255Z,3.53
2022-10-14T14:14:47.752Z,3.85
2022-10-14T14:15:51.970Z,2.90
2022-10-14T14:16:56.462Z,3.58
2022-10-14T14:17:58.683Z,3.65
2022-10-14T14:19:10.191Z,3.83
2022-10-14T14:20:12.826Z,3.17
2022-10-14T14:21:16.226Z,2.90
2022-10-14T14:22:28.509Z,3.30
2022-10-14T14:23:30.840Z,2.92
2022-10-14T14:24:34.193Z,3.03
2022-10-14T14:25:43.254Z,2.90
2022-10-14T14:26:55.112Z,2.83
2022-10-14T14:28:01.841Z,3.05
2022-10-14T14:29:07.004Z,2.92
2022-10-14T14:30:27.753Z,3.10
2022-10-14T14:31:47.889Z,3.30
2022-10-14T14:32:54.157Z,3.20
2022-10-14T14:33:59.041Z,3.38
2022-10-14T14:35:04.630Z,3.40
2022-10-14T14:36:18.127Z,4.18
2022-10-14T14:37:55.724Z,3.13
2022-10-14T14:38:58.829Z,3.00
2022-10-14T14:40:04.615Z,3.13
2022-10-14T14:41:18.403Z,2.80
2022-10-14T14:42:21.030Z,2.97
2022-10-14T14:43:24.162Z,2.88
2022-10-14T14:44:29.946Z,3.08
2022-10-14T14:45:37.461Z,2.60
2022-10-14T14:46:42.086Z,2.90
2022-10-14T14:47:44.904Z,3.13
2022-10-14T14:48:54.515Z,3.00
2022-10-14T14:50:18.340Z,2.83
2022-10-14T14:51:22.201Z,2.63
2022-10-14T14:52:25.110Z,3.17
2022-10-14T14:53:29.902Z,2.80
2022-10-14T14:54:32.073Z,2.90
2022-10-14T14:55:55.939Z,3.00
2022-10-14T14:57:01.036Z,3.13
2022-10-14T14:58:05.654Z,3.05
2022-10-14T14:59:36.922Z,3.25
2022-10-14T15:00:45.081Z,3.67
2022-10-14T15:01:47.888Z,4.15
2022-10-14T15:02:58.222Z,5.25
2022-10-14T15:04:13.309Z,6.15
2022-10-14T15:05:20.052Z,5.40
2022-10-14T15:06:23.536Z,6.25
2022-10-14T15:07:25.924Z,5.70
2022-10-14T15:08:32.454Z,7.40
2022-10-14T15:09:42.671Z,6.97
2022-10-14T15:10:48.807Z,5.22
2022-10-14T15:11:55.095Z,5.20
2022-10-14T15:13:02.403Z,5.20
2022-10-14T15:14:29.610Z,4.15
2022-10-14T15:15:33.957Z,4.93
2022-10-14T15:16:42.120Z,5.32
2022-10-14T15:17:45.959Z,4.60
2022-10-14T15:18:48.190Z,5.13
2022-10-14T15:19:50.596Z,6.10
2022-10-14T15:21:12.085Z,6.53
2022-10-14T15:22:16.878Z,6.50
2022-10-14T15:23:42.871Z,6.57
2022-10-14T15:25:03.970Z,10.35
2022-10-14T15:26:24.598Z,12.02
2022-10-14T15:27:52.705Z,6.13